createdAt,value
2022-08-01T00:00:06.825Z,44.79
2022-08-01T00:01:06.101Z,45.44
2022-08-01T00:02:06.335Z,42.22
2022-08-01T00:03:06.090Z,42.86
2022-08-01T00:04:06.076Z,63.16
2022-08-01T00:05:06.101Z,68.48
2022-08-01T00:06:06.093Z,67.03
2022-08-01T00:07:06.064Z,42.38
2022-08-01T00:08:06.051Z,42.38
2022-08-01T00:09:06.061Z,69.45
2022-08-01T00:10:06.176Z,64.45
2022-08-01T00:11:06.034Z,42.22
2022-08-01T00:12:06.041Z,56.07
2022-08-01T00:13:06.008Z,67.68
2022-08-01T00:14:06.023Z,47.70
2022-08-01T00:15:06.022Z,63.81
2022-08-01T00:16:06.048Z,42.22
2022-08-01T00:17:07.608Z,42.22
2022-08-01T00:18:06.998Z,42.70
2022-08-01T00:19:05.990Z,42.70
2022-08-01T00:20:06.372Z,42.86
2022-08-01T00:21:05.999Z,65.74
2022-08-01T00:22:07.331Z,42.38
2022-08-01T00:23:05.956Z,61.55
2022-08-01T00:24:05.931Z,64.13
2022-08-01T00:25:05.946Z,44.79
2022-08-01T00:26:05.938Z,66.71
2022-08-01T00:27:05.936Z,42.38
2022-08-01T00:28:05.959Z,42.38
2022-08-01T00:29:11.506Z,42.54
2022-08-01T00:30:14.012Z,63.97
2022-08-01T00:31:06.891Z,66.55
2022-08-01T00:32:06.111Z,70.09
2022-08-01T00:33:05.903Z,42.54
2022-08-01T00:34:05.886Z,42.54
2022-08-01T00:35:05.889Z,42.70
2022-08-01T00:36:05.900Z,43.02
2022-08-01T00:37:05.862Z,73.48
2022-08-01T00:38:05.845Z,42.54
2022-08-01T00:39:05.831Z,42.70
2022-08-01T00:40:05.823Z,72.19
2022-08-01T00:41:05.879Z,43.34
2022-08-01T00:42:06.037Z,43.18
2022-08-01T00:43:05.833Z,66.55
2022-08-01T00:44:05.777Z,70.25
2022-08-01T00:45:05.813Z,42.54
2022-08-01T00:46:05.824Z,42.86
2022-08-01T00:47:05.773Z,42.86
2022-08-01T00:48:05.778Z,47.21
2022-08-01T00:49:05.807Z,42.86
2022-08-01T00:50:05.755Z,42.54
2022-08-01T00:51:06.344Z,63.33
2022-08-01T00:52:06.739Z,48.34
2022-08-01T00:53:05.740Z,42.54
2022-08-01T00:54:05.736Z,42.38
2022-08-01T00:55:05.716Z,42.38
2022-08-01T00:56:05.743Z,42.54
2022-08-01T00:57:10.207Z,42.54
2022-08-01T00:58:06.747Z,42.70
2022-08-01T00:59:06.680Z,42.38
2022-08-01T01:00:06.338Z,42.38
2022-08-01T01:01:06.522Z,42.38
2022-08-01T01:02:14.531Z,42.54
2022-08-01T01:03:06.637Z,42.54
2022-08-01T01:04:08.641Z,42.54
2022-08-01T01:05:05.680Z,43.18
2022-08-01T01:06:05.665Z,43.18
2022-08-01T01:07:05.635Z,43.99
2022-08-01T01:08:05.621Z,70.58
2022-08-01T01:09:06.355Z,42.54
2022-08-01T01:10:05.620Z,42.54
2022-08-01T01:11:05.598Z,42.38
2022-08-01T01:12:05.846Z,42.54
2022-08-01T01:13:05.567Z,43.02
2022-08-01T01:14:05.562Z,47.53
2022-08-01T01:15:06.518Z,67.51
2022-08-01T01:16:05.589Z,51.24
2022-08-01T01:17:05.539Z,69.77
2022-08-01T01:18:05.516Z,70.58
2022-08-01T01:19:05.523Z,46.41
2022-08-01T01:20:05.510Z,72.03
2022-08-01T01:21:05.512Z,65.58
2022-08-01T01:22:06.702Z,66.06
2022-08-01T01:23:05.528Z,71.54
2022-08-01T01:24:05.481Z,71.22
2022-08-01T01:25:06.357Z,68.32
2022-08-01T01:26:05.459Z,43.18
2022-08-01T01:27:05.457Z,69.61
2022-08-01T01:28:05.551Z,43.02
2022-08-01T01:29:06.376Z,67.35
2022-08-01T01:30:05.471Z,70.58
2022-08-01T01:31:05.432Z,45.60
2022-08-01T01:32:05.670Z,42.70
2022-08-01T01:33:06.420Z,42.86
2022-08-01T01:34:05.409Z,70.74
2022-08-01T01:35:06.367Z,43.02
2022-08-01T01:36:07.502Z,57.52
2022-08-01T01:37:06.434Z,70.25
2022-08-01T01:38:05.403Z,43.83
2022-08-01T01:39:05.365Z,43.18
2022-08-01T01:40:05.380Z,59.30
2022-08-01T01:41:05.359Z,48.66
2022-08-01T01:42:05.651Z,49.79
2022-08-01T01:43:05.349Z,47.70
2022-08-01T01:44:05.370Z,56.88
2022-08-01T02:03:47.365Z,42.86
2022-08-01T02:04:47.411Z,42.86
2022-08-01T02:05:48.529Z,65.26
2022-08-01T02:06:48.541Z,42.86
2022-08-01T02:07:48.625Z,42.86
2022-08-01T02:08:48.463Z,42.86
2022-08-01T02:09:48.477Z,70.90
2022-08-01T02:10:48.494Z,64.78
2022-08-01T02:12:07.635Z,75.09
2022-08-01T02:12:49.438Z,67.35
2022-08-01T02:14:20.470Z,50.92
2022-08-01T02:14:48.543Z,47.86
2022-08-01T02:15:59.400Z,67.51
2022-08-01T02:16:49.444Z,57.04
2022-08-01T02:17:50.076Z,68.16
2022-08-01T02:18:48.436Z,70.09
2022-08-01T02:19:48.484Z,44.15
2022-08-01T02:20:48.518Z,73.96
2022-08-01T02:21:48.978Z,48.66
2022-08-01T02:22:49.093Z,65.26
2022-08-01T02:23:48.348Z,74.60
2022-08-01T02:24:48.352Z,77.67
2022-08-01T02:26:10.470Z,70.09
2022-08-01T02:26:49.329Z,78.31
2022-08-01T02:27:49.346Z,74.28
2022-08-01T02:28:48.337Z,72.19
2022-08-01T02:29:48.313Z,75.73
2022-08-01T02:30:48.354Z,70.58
2022-08-01T02:31:48.520Z,74.77
2022-08-01T02:32:48.303Z,79.12
2022-08-01T02:33:48.284Z,77.34
2022-08-01T02:34:48.276Z,52.21
2022-08-01T02:36:30.585Z,71.38
2022-08-01T02:36:49.289Z,76.70
2022-08-01T02:37:48.243Z,73.15
2022-08-01T02:38:48.247Z,74.77
2022-08-01T02:39:48.229Z,68.48
2022-08-01T02:40:49.219Z,69.61
2022-08-01T02:41:48.240Z,75.25
2022-08-01T02:42:48.310Z,68.48
2022-08-01T02:43:53.227Z,48.66
2022-08-01T02:44:50.124Z,69.45
2022-08-01T02:45:48.193Z,70.58
2022-08-01T02:46:48.991Z,71.54
2022-08-01T02:47:49.102Z,73.96
2022-08-01T02:48:48.203Z,72.99
2022-08-01T02:49:53.263Z,63.97
2022-08-01T02:50:49.207Z,75.57
2022-08-01T02:51:48.191Z,64.29
2022-08-01T02:52:48.161Z,78.47
2022-08-01T02:53:48.134Z,73.15
2022-08-01T02:54:48.142Z,69.93
2022-08-01T02:55:48.124Z,77.50
2022-08-01T02:56:48.127Z,70.09
2022-08-01T02:57:52.397Z,76.54
2022-08-01T02:58:49.124Z,70.09
2022-08-01T02:59:48.116Z,70.90
2022-08-01T03:00:48.573Z,68.32
2022-08-01T03:01:48.150Z,71.70
2022-08-01T03:02:48.084Z,77.99
2022-08-01T03:03:48.097Z,70.42
2022-08-01T03:04:48.144Z,71.87
2022-08-01T03:05:48.067Z,70.90
2022-08-01T03:06:48.067Z,72.03
2022-08-01T03:07:48.630Z,75.25
2022-08-01T03:08:48.067Z,70.74
2022-08-01T03:09:48.016Z,71.06
2022-08-01T03:10:48.045Z,72.99
2022-08-01T03:11:48.000Z,76.70
2022-08-01T03:12:48.223Z,71.87
2022-08-01T03:13:48.002Z,67.84
2022-08-01T03:14:47.999Z,76.22
2022-08-01T03:15:47.982Z,71.87
2022-08-01T03:16:47.955Z,71.06
2022-08-01T03:17:47.953Z,67.84
2022-08-01T03:18:47.934Z,66.87
2022-08-01T03:19:47.958Z,73.15
2022-08-01T03:20:47.948Z,80.89
2022-08-01T03:21:47.923Z,77.34
2022-08-01T03:22:47.917Z,75.73
2022-08-01T03:24:19.832Z,70.58
2022-08-01T03:24:47.898Z,69.93
2022-08-01T03:26:19.829Z,72.35
2022-08-01T03:26:47.890Z,47.70
2022-08-01T03:27:47.914Z,70.90
2022-08-01T03:28:47.870Z,74.12
2022-08-01T03:29:47.858Z,72.67
2022-08-01T03:30:47.882Z,72.03
2022-08-01T03:31:47.841Z,72.51
2022-08-01T03:32:47.848Z,71.06
2022-08-01T03:33:47.838Z,71.22
2022-08-01T03:34:47.830Z,72.03
2022-08-01T03:35:47.826Z,71.54
2022-08-01T03:36:47.811Z,76.86
2022-08-01T03:38:14.308Z,76.70
2022-08-01T03:38:49.796Z,72.03
2022-08-01T03:39:47.778Z,72.51
2022-08-01T03:40:47.774Z,73.32
2022-08-01T03:41:52.558Z,73.15
2022-08-01T03:42:49.761Z,74.93
2022-08-01T03:43:47.752Z,71.70
2022-08-01T03:44:47.748Z,70.09
2022-08-01T03:45:47.745Z,73.32
2022-08-01T04:02:32.726Z,81.53
2022-08-01T04:03:32.719Z,80.89
2022-08-01T04:04:33.726Z,80.24
2022-08-01T04:05:32.706Z,81.21
2022-08-01T04:06:32.693Z,73.64
2022-08-01T04:07:33.831Z,72.67
2022-08-01T04:08:33.836Z,80.41
2022-08-01T04:09:33.806Z,79.92
2022-08-01T04:10:33.900Z,82.18
2022-08-01T04:11:33.793Z,78.31
2022-08-01T04:12:33.798Z,81.69
2022-08-01T04:13:37.329Z,78.31
2022-08-01T04:14:33.778Z,77.18
2022-08-01T04:15:33.752Z,80.41
2022-08-01T04:16:33.789Z,81.05
2022-08-01T04:17:33.747Z,73.80
2022-08-01T04:18:33.739Z,75.41
2022-08-01T04:19:33.721Z,73.32
2022-08-01T04:20:33.777Z,82.66
2022-08-01T04:21:33.729Z,80.24
2022-08-01T04:22:37.479Z,80.89
2022-08-01T04:23:33.699Z,78.79
2022-08-01T04:24:33.763Z,76.22
2022-08-01T04:25:33.693Z,80.24
2022-08-01T04:26:33.707Z,80.24
2022-08-01T04:27:50.580Z,80.57
2022-08-01T04:28:34.667Z,73.80
2022-08-01T04:29:33.713Z,73.32
2022-08-01T04:30:33.652Z,82.18
2022-08-01T04:31:33.652Z,82.50
2022-08-01T04:32:33.633Z,83.14
2022-08-01T04:33:33.608Z,83.14
2022-08-01T04:34:33.624Z,81.53
2022-08-01T04:36:02.130Z,80.57
2022-08-01T04:36:34.628Z,75.73
2022-08-01T04:37:33.597Z,72.99
2022-08-01T04:38:33.584Z,78.63
2022-08-01T04:39:33.598Z,81.05
2022-08-01T04:40:34.567Z,81.53
2022-08-01T04:41:33.578Z,78.79
2022-08-01T04:42:33.729Z,80.24
2022-08-01T04:43:33.562Z,81.21
2022-08-01T04:44:33.540Z,79.12
2022-08-01T04:45:33.537Z,73.32
2022-08-01T04:46:33.576Z,82.50
2022-08-01T04:47:33.520Z,74.44
2022-08-01T04:48:33.549Z,80.89
2022-08-01T04:49:33.614Z,75.25
2022-08-01T04:50:34.512Z,76.38
2022-08-01T04:51:33.490Z,79.76
2022-08-01T04:52:34.486Z,81.53
2022-08-01T04:53:33.522Z,80.24
2022-08-01T04:54:33.470Z,80.73
2022-08-01T04:55:33.468Z,73.32
2022-08-01T04:56:33.453Z,82.18
2022-08-01T04:57:33.465Z,72.99
2022-08-01T04:58:33.463Z,86.21
2022-08-01T04:59:33.457Z,81.37
2022-08-01T05:00:33.455Z,81.05
2022-08-01T05:01:33.478Z,81.37
2022-08-01T05:02:33.401Z,74.60
2022-08-01T05:03:38.410Z,76.05
2022-08-01T05:04:35.395Z,82.66
2022-08-01T05:05:33.459Z,75.25
2022-08-01T05:06:33.375Z,73.80
2022-08-01T05:07:33.365Z,71.70
2022-08-01T05:08:34.377Z,78.79
2022-08-01T05:09:33.376Z,79.60
2022-08-01T05:10:33.341Z,83.47
2022-08-01T05:11:33.353Z,78.96
2022-08-01T05:12:33.359Z,76.05
2022-08-01T05:13:33.337Z,80.41
2022-08-01T05:14:33.338Z,84.59
2022-08-01T05:15:33.357Z,79.44
2022-08-01T05:16:33.312Z,82.18
2022-08-01T05:17:33.296Z,78.79
2022-08-01T05:18:33.309Z,74.44
2022-08-01T05:19:33.288Z,80.24
2022-08-01T05:20:33.289Z,76.86
2022-08-01T05:21:33.304Z,74.12
2022-08-01T05:22:33.287Z,79.76
2022-08-01T05:23:42.302Z,76.05
2022-08-01T05:24:34.254Z,74.28
2022-08-01T05:25:57.831Z,74.28
2022-08-01T05:26:34.251Z,75.73
2022-08-01T05:27:33.234Z,80.89
2022-08-01T05:28:33.221Z,80.73
2022-08-01T05:29:33.219Z,74.44
2022-08-01T05:30:33.209Z,74.28
2022-08-01T05:31:33.262Z,81.37
2022-08-01T05:32:33.176Z,84.92
2022-08-01T05:33:33.182Z,80.89
2022-08-01T05:34:33.161Z,77.02
2022-08-01T05:35:48.365Z,81.86
2022-08-01T05:36:34.176Z,81.05
2022-08-01T05:37:33.167Z,81.86
2022-08-01T05:38:33.166Z,80.08
2022-08-01T05:39:33.145Z,81.53
2022-08-01T05:40:33.137Z,82.18
2022-08-01T05:41:33.121Z,82.18
2022-08-01T05:42:33.162Z,76.54
2022-08-01T05:43:33.138Z,78.63
2022-08-01T05:44:33.120Z,84.11
2022-08-01T05:45:33.079Z,76.05
2022-08-01T05:46:33.080Z,82.02
2022-08-01T05:47:33.083Z,83.95
2022-08-01T05:48:33.076Z,76.70
2022-08-01T05:49:33.126Z,82.98
2022-08-01T05:50:33.180Z,82.34
2022-08-01T05:51:33.077Z,71.70
2022-08-01T05:52:33.031Z,80.41
2022-08-01T05:53:33.079Z,77.99
2022-08-01T05:54:33.018Z,75.73
2022-08-01T05:55:33.012Z,80.89
2022-08-01T05:56:32.994Z,81.05
2022-08-01T05:57:33.029Z,82.98
2022-08-01T05:58:33.029Z,73.48
2022-08-01T05:59:32.980Z,79.28
2022-08-01T06:00:32.963Z,80.73
2022-08-01T06:01:32.963Z,79.92
2022-08-01T06:02:33.017Z,81.86
2022-08-01T06:03:32.965Z,74.93
2022-08-01T06:04:32.948Z,74.77
2022-08-01T06:05:32.942Z,80.08
2022-08-01T06:06:32.947Z,76.22
2022-08-01T06:07:32.959Z,80.24
2022-08-01T06:08:32.923Z,80.24
2022-08-01T06:09:32.908Z,73.15
2022-08-01T06:10:32.995Z,82.18
2022-08-01T06:11:32.883Z,80.08
2022-08-01T06:12:35.623Z,81.21
2022-08-01T06:13:33.885Z,79.28
2022-08-01T06:14:33.870Z,77.34
2022-08-01T06:15:32.912Z,76.54
2022-08-01T06:16:32.970Z,72.83
2022-08-01T06:17:32.846Z,82.34
2022-08-01T06:18:32.831Z,74.12
2022-08-01T06:19:32.842Z,82.18
2022-08-01T06:20:32.840Z,72.99
2022-08-01T06:21:32.820Z,81.05
2022-08-01T06:22:32.796Z,79.92
2022-08-01T06:23:33.801Z,74.77
2022-08-01T06:24:32.815Z,80.89
2022-08-01T06:25:32.924Z,81.05
2022-08-01T06:26:32.811Z,74.77
2022-08-01T06:27:32.778Z,74.93
2022-08-01T06:28:32.759Z,76.22
2022-08-01T06:29:32.769Z,72.35
2022-08-01T06:30:32.754Z,73.64
2022-08-01T06:31:33.920Z,81.21
2022-08-01T06:32:33.769Z,73.32
2022-08-01T06:33:32.737Z,72.99
2022-08-01T06:34:32.731Z,78.15
2022-08-01T06:35:33.506Z,79.44
2022-08-01T06:36:32.742Z,73.48
2022-08-01T06:37:32.753Z,80.57
2022-08-01T06:38:32.702Z,75.57
2022-08-01T06:39:32.682Z,77.99
2022-08-01T06:40:32.671Z,80.89
2022-08-01T06:41:32.673Z,72.99
2022-08-01T06:42:32.695Z,72.99
2022-08-01T06:43:32.677Z,70.58
2022-08-01T06:44:32.645Z,73.32
2022-08-01T06:45:32.653Z,70.90
2022-08-01T06:46:32.700Z,75.73
2022-08-01T06:47:32.653Z,73.64
2022-08-01T06:48:32.633Z,73.80
2022-08-01T06:49:32.637Z,73.48
2022-08-01T06:50:32.595Z,73.32
2022-08-01T06:51:32.588Z,71.06
2022-08-01T06:52:32.606Z,78.15
2022-08-01T06:53:36.349Z,77.34
2022-08-01T06:54:33.565Z,73.15
2022-08-01T06:55:32.553Z,78.31
2022-08-01T06:56:32.552Z,72.51
2022-08-01T06:57:32.533Z,73.32
2022-08-01T06:58:32.562Z,74.28
2022-08-01T06:59:32.583Z,76.38
2022-08-01T07:00:32.579Z,73.15
2022-08-01T07:01:35.238Z,73.15
2022-08-01T07:02:32.507Z,78.31
2022-08-01T07:03:53.853Z,78.31
2022-08-01T07:04:33.506Z,81.21
2022-08-01T07:05:32.565Z,75.73
2022-08-01T07:06:32.478Z,71.38
2022-08-01T07:07:32.523Z,79.28
2022-08-01T07:08:32.474Z,73.32
2022-08-01T07:09:32.478Z,71.38
2022-08-01T07:10:32.486Z,78.15
2022-08-01T07:11:32.461Z,73.96
2022-08-01T07:12:32.489Z,77.18
2022-08-01T07:13:36.782Z,73.15
2022-08-01T07:14:33.423Z,73.32
2022-08-01T07:15:32.411Z,72.19
2022-08-01T07:16:32.413Z,83.47
2022-08-01T07:17:32.420Z,78.31
2022-08-01T07:18:32.394Z,71.06
2022-08-01T07:19:32.384Z,72.51
2022-08-01T07:20:37.987Z,73.32
2022-08-01T07:21:40.308Z,72.99
2022-08-01T07:22:33.373Z,66.23
2022-08-01T07:23:34.036Z,76.38
2022-08-01T07:24:32.363Z,70.74
2022-08-01T07:25:32.334Z,78.63
2022-08-01T07:26:32.348Z,77.34
2022-08-01T07:27:32.325Z,77.50
2022-08-01T07:28:32.354Z,73.15
2022-08-01T07:29:32.316Z,73.15
2022-08-01T07:30:32.300Z,77.02
2022-08-01T07:31:32.580Z,79.60
2022-08-01T07:32:33.483Z,77.99
2022-08-01T07:33:49.306Z,76.38
2022-08-01T07:34:33.281Z,72.03
2022-08-01T07:35:32.277Z,74.93
2022-08-01T07:36:32.254Z,74.28
2022-08-01T07:37:45.294Z,71.06
2022-08-01T07:38:33.233Z,70.90
2022-08-01T07:39:32.244Z,76.70
2022-08-01T07:40:32.256Z,78.47
2022-08-01T07:41:53.195Z,70.90
2022-08-01T07:42:33.239Z,73.48
2022-08-01T07:43:32.239Z,71.06
2022-08-01T07:44:32.191Z,69.61
2022-08-01T07:45:32.192Z,75.41
2022-08-01T07:46:32.288Z,70.25
2022-08-01T07:47:32.172Z,72.35
2022-08-01T07:48:32.182Z,72.03
2022-08-01T07:49:34.951Z,72.35
2022-08-01T07:50:34.295Z,76.86
2022-08-01T07:51:32.145Z,72.83
2022-08-01T07:52:32.160Z,77.50
2022-08-01T07:53:32.150Z,72.35
2022-08-01T07:54:33.880Z,76.38
2022-08-01T07:55:33.137Z,69.61
2022-08-01T07:56:32.208Z,77.18
2022-08-01T07:57:32.257Z,74.28
2022-08-01T07:58:32.102Z,76.54
2022-08-01T07:59:32.119Z,76.22
2022-08-01T08:00:32.113Z,70.74
2022-08-01T08:01:32.167Z,76.38
2022-08-01T08:02:32.175Z,71.06
2022-08-01T08:03:32.061Z,72.19
2022-08-01T08:04:32.046Z,75.73
2022-08-01T08:05:57.929Z,81.21
2022-08-01T08:06:33.054Z,69.45
2022-08-01T08:07:32.083Z,91.52
2022-08-01T08:08:32.014Z,72.83
2022-08-01T08:09:32.017Z,70.90
2022-08-01T08:10:32.997Z,72.99
2022-08-01T08:11:31.999Z,75.57
2022-08-01T08:12:32.071Z,73.32
2022-08-01T08:14:03.901Z,71.70
2022-08-01T08:14:32.478Z,76.70
2022-08-01T08:15:31.970Z,77.83
2022-08-01T08:16:31.978Z,69.61
2022-08-01T08:17:35.613Z,74.77
2022-08-01T08:18:31.953Z,76.54
2022-08-01T08:19:37.597Z,77.34
2022-08-01T08:20:32.956Z,75.89
2022-08-01T08:21:31.933Z,77.02
2022-08-01T08:22:31.935Z,76.70
2022-08-01T08:23:42.954Z,82.66
2022-08-01T08:24:33.446Z,100.55
2022-08-01T08:25:31.912Z,78.47
2022-08-01T08:26:31.895Z,77.67
2022-08-01T08:27:31.902Z,71.38
2022-08-01T08:28:31.905Z,77.50
2022-08-01T08:29:31.865Z,71.38
2022-08-01T08:30:31.864Z,71.70
2022-08-01T08:31:52.021Z,78.63
2022-08-01T08:32:32.859Z,74.77
2022-08-01T08:33:31.862Z,77.18
2022-08-01T08:34:31.880Z,71.70
2022-08-01T08:35:53.828Z,78.79
2022-08-01T08:36:32.834Z,72.99
2022-08-01T08:37:31.804Z,73.96
2022-08-01T08:38:32.805Z,79.44
2022-08-01T08:39:31.814Z,71.54
2022-08-01T08:40:32.821Z,75.25
2022-08-01T08:41:37.696Z,77.67
2022-08-01T08:42:32.777Z,74.28
2022-08-01T08:43:31.771Z,76.54
2022-08-01T08:44:32.519Z,72.51
2022-08-01T08:45:59.731Z,75.25
2022-08-01T08:46:32.760Z,73.96
2022-08-01T08:47:31.750Z,74.77
2022-08-01T08:48:31.730Z,78.63
2022-08-01T08:49:35.892Z,75.89
2022-08-01T08:50:31.731Z,78.96
2022-08-01T08:51:31.709Z,72.03
2022-08-01T08:52:31.737Z,73.15
2022-08-01T08:53:34.767Z,72.19
2022-08-01T08:54:31.895Z,72.19
2022-08-01T08:55:31.710Z,73.80
2022-08-01T08:56:31.699Z,77.50
2022-08-01T08:57:31.677Z,75.25
2022-08-01T08:58:32.008Z,77.67
2022-08-01T08:59:31.655Z,70.74
2022-08-01T09:00:31.666Z,75.57
2022-08-01T09:01:31.642Z,69.45
2022-08-01T09:02:31.624Z,70.09
2022-08-01T09:03:31.721Z,74.77
2022-08-01T09:04:31.628Z,69.13
2022-08-01T09:05:39.324Z,76.54
2022-08-01T09:06:32.663Z,75.89
2022-08-01T09:07:32.093Z,77.99
2022-08-01T09:08:31.606Z,70.42
2022-08-01T09:09:31.577Z,74.93
2022-08-01T09:10:31.565Z,77.67
2022-08-01T09:11:31.573Z,71.54
2022-08-01T09:12:31.623Z,72.51
2022-08-01T09:13:31.554Z,68.16
2022-08-01T09:14:31.614Z,71.87
2022-08-01T09:15:33.846Z,72.19
2022-08-01T09:16:31.537Z,72.83
2022-08-01T09:17:31.548Z,69.93
2022-08-01T09:18:31.517Z,75.41
2022-08-01T09:19:39.652Z,74.12
2022-08-01T09:20:32.496Z,78.96
2022-08-01T09:21:31.485Z,66.71
2022-08-01T09:22:31.482Z,77.18
2022-08-01T09:23:31.500Z,76.86
2022-08-01T09:24:31.495Z,71.87
2022-08-01T09:25:31.478Z,70.90
2022-08-01T09:26:32.465Z,68.00
2022-08-01T09:27:31.464Z,74.60
2022-08-01T09:28:31.459Z,71.22
2022-08-01T09:29:37.461Z,75.25
2022-08-01T09:30:32.478Z,71.54
2022-08-01T09:31:38.460Z,75.73
2022-08-01T09:32:36.503Z,70.90
2022-08-01T09:33:36.872Z,73.80
2022-08-01T09:34:32.422Z,78.63
2022-08-01T09:35:36.002Z,75.57
2022-08-01T09:36:33.411Z,76.22
2022-08-01T09:37:37.212Z,76.22
2022-08-01T09:38:32.404Z,69.77
2022-08-01T09:39:31.370Z,78.31
2022-08-01T09:40:31.389Z,69.77
2022-08-01T09:41:39.991Z,69.93
2022-08-01T09:42:32.368Z,77.18
2022-08-01T09:43:31.933Z,76.38
2022-08-01T09:44:42.297Z,72.35
2022-08-01T09:45:41.795Z,72.83
2022-08-01T09:46:32.357Z,76.38
2022-08-01T09:47:31.322Z,69.61
2022-08-01T09:48:32.084Z,71.70
2022-08-01T09:49:50.711Z,72.67
2022-08-01T09:50:32.306Z,70.58
2022-08-01T09:51:59.202Z,75.73
2022-08-01T09:52:32.283Z,75.57
2022-08-01T09:53:31.275Z,74.28
2022-08-01T09:54:32.318Z,75.25
2022-08-01T09:55:31.306Z,73.32
2022-08-01T09:56:31.283Z,71.22
2022-08-01T09:57:31.250Z,72.35
2022-08-01T09:58:31.258Z,71.87
2022-08-01T09:59:40.981Z,77.50
2022-08-01T10:00:44.187Z,73.96
2022-08-01T10:01:36.813Z,71.70
2022-08-01T10:02:31.249Z,77.02
2022-08-01T10:03:31.286Z,78.31
2022-08-01T10:04:31.224Z,75.25
2022-08-01T10:05:31.281Z,73.32
2022-08-01T10:06:32.188Z,77.99
2022-08-01T10:07:43.659Z,70.90
2022-08-01T10:08:32.180Z,75.41
2022-08-01T10:09:39.947Z,73.80
2022-08-01T10:10:33.068Z,77.67
2022-08-01T10:11:36.226Z,75.89
2022-08-01T10:12:32.154Z,71.38
2022-08-01T10:13:36.728Z,75.89
2022-08-01T10:14:32.143Z,76.70
2022-08-01T10:15:37.322Z,74.44
2022-08-01T10:16:32.124Z,72.51
2022-08-01T10:17:50.810Z,74.60
2022-08-01T10:18:33.061Z,75.09
2022-08-01T10:19:31.145Z,74.12
2022-08-01T10:20:32.216Z,76.05
2022-08-01T10:21:56.407Z,78.15
2022-08-01T10:22:32.089Z,75.57
2022-08-01T10:23:40.237Z,75.89
2022-08-01T10:24:33.401Z,72.99
2022-08-01T10:25:41.793Z,75.89
2022-08-01T10:26:32.144Z,73.64
2022-08-01T10:27:38.077Z,73.48
2022-08-01T10:28:32.063Z,75.41
2022-08-01T10:29:59.139Z,74.60
2022-08-01T10:30:32.070Z,70.90
2022-08-01T10:31:31.165Z,75.41
2022-08-01T10:32:31.050Z,74.77
2022-08-01T10:33:51.822Z,71.22
2022-08-01T10:34:32.003Z,75.89
2022-08-01T10:35:45.706Z,78.15
2022-08-01T10:36:32.027Z,76.86
2022-08-01T10:37:31.041Z,71.38
2022-08-01T10:38:30.962Z,75.73
2022-08-01T10:39:30.972Z,74.28
2022-08-01T10:40:31.414Z,68.00
2022-08-01T10:41:33.098Z,70.74
2022-08-01T10:42:30.951Z,71.70
2022-08-01T10:43:30.985Z,70.09
2022-08-01T10:44:30.923Z,74.93
2022-08-01T10:45:30.930Z,77.18
2022-08-01T10:46:31.581Z,76.22
2022-08-01T10:47:50.825Z,76.86
2022-08-01T10:48:31.919Z,77.18
2022-08-01T10:49:31.712Z,77.50
2022-08-01T10:50:30.914Z,77.34
2022-08-01T10:51:51.500Z,73.15
2022-08-01T10:52:34.458Z,69.45
2022-08-01T10:53:42.571Z,74.93
2022-08-01T10:54:31.850Z,77.50
2022-08-01T10:55:30.888Z,69.45
2022-08-01T10:56:30.866Z,77.50
2022-08-01T10:57:30.845Z,70.25
2022-08-01T10:58:30.867Z,76.70
2022-08-01T10:59:49.788Z,74.44
2022-08-01T11:00:31.838Z,71.87
2022-08-01T11:01:31.472Z,74.12
2022-08-01T11:02:32.115Z,78.15
2022-08-01T11:03:55.667Z,72.35
2022-08-01T11:04:32.822Z,76.86
2022-08-01T11:05:30.818Z,76.22
2022-08-01T11:06:30.784Z,75.25
2022-08-01T11:07:34.956Z,75.25
2022-08-01T11:08:30.764Z,69.77
2022-08-01T11:09:37.002Z,78.79
2022-08-01T11:10:31.800Z,72.83
2022-08-01T11:11:37.378Z,75.73
2022-08-01T11:12:31.878Z,77.34
2022-08-01T11:13:32.381Z,73.48
2022-08-01T11:14:54.770Z,74.77
2022-08-01T11:15:32.728Z,70.25
2022-08-01T11:16:30.717Z,77.18
2022-08-01T11:17:31.468Z,77.99
2022-08-01T11:18:31.715Z,76.38
2022-08-01T11:19:30.723Z,75.41
2022-08-01T11:20:30.671Z,74.44
2022-08-01T11:21:59.415Z,74.44
2022-08-01T11:22:31.717Z,74.93
2022-08-01T11:23:35.974Z,78.96
2022-08-01T11:24:31.690Z,74.12
2022-08-01T11:26:06.409Z,74.60
2022-08-01T11:26:31.664Z,67.35
2022-08-01T11:27:31.491Z,76.22
2022-08-01T11:28:34.800Z,73.64
2022-08-01T11:29:32.612Z,71.22
2022-08-01T11:30:30.621Z,76.70
2022-08-01T11:31:30.627Z,77.99
2022-08-01T11:32:42.430Z,68.96
2022-08-01T11:33:31.598Z,68.64
2022-08-01T11:34:30.608Z,75.57
2022-08-01T11:35:30.613Z,74.93
2022-08-01T11:36:55.849Z,72.03
2022-08-01T11:37:32.614Z,74.77
2022-08-01T11:38:30.584Z,77.67
2022-08-01T11:39:31.280Z,73.80
2022-08-01T11:40:30.551Z,75.89
2022-08-01T11:41:38.491Z,77.02
2022-08-01T11:42:31.575Z,74.93
2022-08-01T11:43:30.535Z,77.83
2022-08-01T11:44:30.975Z,73.80
2022-08-01T11:45:30.544Z,76.22
2022-08-01T11:46:30.515Z,70.25
2022-08-01T11:47:30.569Z,69.77
2022-08-01T11:48:32.117Z,71.70
2022-08-01T11:49:30.517Z,77.67
2022-08-01T11:50:30.481Z,77.34
2022-08-01T11:51:30.482Z,71.06
2022-08-01T11:52:30.669Z,68.96
2022-08-01T11:53:30.474Z,74.28
2022-08-01T11:54:35.583Z,76.22
2022-08-01T11:55:32.176Z,76.86
2022-08-01T11:56:30.451Z,73.48
2022-08-01T11:57:34.637Z,76.54
2022-08-01T11:58:31.598Z,73.80
2022-08-01T11:59:37.197Z,73.15
2022-08-01T12:00:31.422Z,77.02
2022-08-01T12:01:30.463Z,73.48
2022-08-01T12:02:31.104Z,77.02
2022-08-01T12:03:33.670Z,73.32
2022-08-01T12:04:30.379Z,75.89
2022-08-01T12:05:31.439Z,77.18
2022-08-01T12:06:30.390Z,78.15
2022-08-01T12:07:30.374Z,76.38
2022-08-01T12:08:30.361Z,75.41
2022-08-01T12:09:30.351Z,78.79
2022-08-01T12:10:30.340Z,71.87
2022-08-01T12:11:37.074Z,71.22
2022-08-01T12:12:31.341Z,77.83
2022-08-01T12:13:30.350Z,79.60
2022-08-01T12:14:30.345Z,74.44
2022-08-01T12:15:30.329Z,72.19
2022-08-01T12:16:33.197Z,74.44
2022-08-01T12:17:30.306Z,73.96
2022-08-01T12:18:30.311Z,75.73
2022-08-01T12:19:30.288Z,72.99
2022-08-01T12:20:31.147Z,67.51
2022-08-01T12:21:32.165Z,73.32
2022-08-01T12:22:30.281Z,76.54
2022-08-01T12:23:30.291Z,78.79
2022-08-01T12:24:30.265Z,75.09
2022-08-01T12:25:30.257Z,74.44
2022-08-01T12:26:32.238Z,70.90
2022-08-01T12:27:30.239Z,76.86
2022-08-01T12:28:30.256Z,70.25
2022-08-01T12:29:30.224Z,74.77
2022-08-01T12:30:30.220Z,75.73
2022-08-01T12:31:30.259Z,76.22
2022-08-01T12:32:35.675Z,75.41
2022-08-01T12:33:31.184Z,77.50
2022-08-01T12:34:30.190Z,78.79
2022-08-01T12:35:30.200Z,75.09
2022-08-01T12:36:30.169Z,76.05
2022-08-01T12:37:30.179Z,73.48
2022-08-01T12:38:30.184Z,73.15
2022-08-01T12:39:30.183Z,73.64
2022-08-01T12:40:30.207Z,77.99
2022-08-01T12:41:30.150Z,74.44
2022-08-01T12:42:30.121Z,74.60
2022-08-01T12:43:30.127Z,72.03
2022-08-01T12:44:30.116Z,75.09
2022-08-01T12:45:30.132Z,77.99
2022-08-01T12:46:30.117Z,74.44
2022-08-01T12:47:30.117Z,77.67
2022-08-01T12:48:31.104Z,75.57
2022-08-01T12:49:30.177Z,73.15
2022-08-01T12:50:30.111Z,69.77
2022-08-01T12:51:30.061Z,75.73
2022-08-01T12:52:30.082Z,73.15
2022-08-01T12:53:40.862Z,72.51
2022-08-01T12:54:31.047Z,72.83
2022-08-01T12:55:34.154Z,72.19
2022-08-01T12:56:30.057Z,73.80
2022-08-01T12:57:30.106Z,72.99
2022-08-01T12:58:30.019Z,76.54
2022-08-01T12:59:30.015Z,72.99
2022-08-01T13:00:30.003Z,73.32
2022-08-01T13:01:30.075Z,68.32
2022-08-01T13:02:30.008Z,75.89
2022-08-01T13:03:30.005Z,76.22
2022-08-01T13:04:29.972Z,74.28
2022-08-01T13:05:29.972Z,77.67
2022-08-01T13:06:29.962Z,76.22
2022-08-01T13:07:32.645Z,78.15
2022-08-01T13:08:30.962Z,70.42
2022-08-01T13:09:29.953Z,71.54
2022-08-01T13:10:29.935Z,74.12
2022-08-01T13:11:29.927Z,74.28
2022-08-01T13:12:29.940Z,72.99
2022-08-01T13:13:29.940Z,73.64
2022-08-01T13:14:29.937Z,75.89
2022-08-01T13:15:29.884Z,69.13
2022-08-01T13:16:55.187Z,77.83
2022-08-01T13:17:31.920Z,73.96
2022-08-01T13:18:29.879Z,75.73
2022-08-01T13:19:29.907Z,74.93
2022-08-01T13:20:29.879Z,69.77
2022-08-01T13:21:29.866Z,73.48
2022-08-01T13:22:30.862Z,75.73
2022-08-01T13:24:03.605Z,74.77
2022-08-01T13:24:30.853Z,71.22
2022-08-01T13:25:29.851Z,75.25
2022-08-01T13:26:29.827Z,69.13